Okauchee, WI

5:09 PM CDT on June 23, 2017 (GMT -0500)
MC3773 | | Change Station

Elev 924 ft 43.11 °N, 88.44 °W | Updated 37 days ago

Mostly Cloudy
Mostly Cloudy
70.0 °F
Feels Like 70.0 °F
N
3.0
Wind Variable Wind from SW
Gusts 10.0 mph

Today
High -- | Low -- °F
--% Chance of Precip.
Yesterday
High -- | Low -- °F
Precip. -- in
Pressure 29.71 in
Visibility 10.0 miles
Clouds Scattered Clouds 6500 ft
Mostly Cloudy 9000 ft
Dew Point 60.0 °F
Humidity 70%
Rainfall 0.68 in
Snow Depth Not available.
5:14 AM 8:37 PM
Waning Crescent, 0% visible
METAR KUES 232145Z 27011G23KT 10SM SCT065 BKN090 25/11 A2971
Pressure 29.71 in
Visibility 10.0 miles
Clouds Scattered Clouds 6500 ft
Mostly Cloudy 9000 ft
Dew Point 60.0 °F
Humidity 70%
Rainfall 0.68 in
Snow Depth Not available.
5:14 AM 8:37 PM
Waning Crescent, 0% visible
METAR KUES 232145Z 27011G23KT 10SM SCT065 BKN090 25/11 A2971

Get Severe Weather Alerts

Thanks for signing up!

Be on the lookout for a verification email in your inbox.

You'll start receiving the daily forecast at 6 AM.

×

10-Day Weather Forecast

Almanac

Astronomy

Jun. 23, 2017 Rise Set
Actual Time
Civil Twilight
Nautical Twilight
Astronomical Twilight
Moon
Length of Visible Light
Length of Day
Tomorrow will be .
, % of the Moon is Illuminated

Today's Extremes

State Highs State Lows

Community

WunderPhotos

Category 6

Welcome to Category 6. This is the collective home for Weather Underground's featured writeups by Dr. Jeff Masters (right), Bob Henson (left), Chris Burt, and other regular contributors.

Nearby

Air Quality

  Air Quality AQ Index Pollutant
Not available.

Snow Depth

Station Depth Elevation

Earthquake Activity

City Distance Mag. Time & Date
Minimum magnitude displayed is 2.5.

Coastal Water Temperatures

Place Temperature

Stations

Nearby Weather Stations

Station Location Temp. Windchill Dew Point Humidity Wind Precip. Elev Updated Type
                   

Watches & Warnings

There are currently no watches in effect.